Time;durP1;ratioP1;P1;durP2;ratioP2;P2;SDS_P1;SDS_P2;PMS_P1;PMS_P2;Temp;Humidity;BMP_temperature;BMP_pressure;BME280_temperature;BME280_humidity;BME280_pressure;Samples;Min_cycle;Max_cycle;Signal;HPM_P1;HPM_P2
2021/12/31 00:02:07;;;;;;;8.27;4.50;;;6.80;99.90;5.90;99379;;;;581933;244;25090;-76
2021/12/31 00:04:34;;;;;;;5.40;4.27;;;6.80;99.90;5.90;99378;;;;578056;244;24115;-76
2021/12/31 00:07:02;;;;;;;6.00;4.40;;;6.80;99.90;6.00;99375;;;;582207;244;24079;-75
2021/12/31 00:09:30;;;;;;;4.20;3.80;;;6.80;99.90;6.00;99376;;;;576502;244;24132;-76
2021/12/31 00:11:57;;;;;;;6.30;4.70;;;6.90;99.90;6.10;99379;;;;576346;247;24116;-75
2021/12/31 00:14:25;;;;;;;4.60;2.93;;;7.00;99.90;6.20;99381;;;;559311;252;24202;-76
2021/12/31 00:16:53;;;;;;;7.23;4.30;;;7.10;99.90;6.20;99381;;;;563130;250;24091;-76
2021/12/31 00:19:22;;;;;;;8.60;3.87;;;7.10;99.90;6.20;99386;;;;560023;251;24152;-77
2021/12/31 00:21:51;;;;;;;4.27;3.77;;;7.10;99.90;6.30;99384;;;;559192;251;24092;-77
2021/12/31 00:24:18;;;;;;;8.50;4.40;;;7.20;99.90;6.30;99366;;;;561585;251;24218;-76
2021/12/31 00:26:46;;;;;;;4.53;4.13;;;7.20;99.90;6.30;99365;;;;561565;252;24200;-77
2021/12/31 00:29:14;;;;;;;3.83;3.33;;;7.20;99.90;6.30;99379;;;;558465;252;24095;-76
2021/12/31 00:31:42;;;;;;;3.13;2.60;;;7.20;99.90;6.30;99370;;;;561505;252;24095;-77
2021/12/31 00:34:10;;;;;;;7.30;3.23;;;7.20;99.90;6.40;99368;;;;555454;252;24185;-78
2021/12/31 00:36:41;;;;;;;3.10;2.80;;;7.20;99.90;6.40;99368;;;;555611;252;24112;-76
2021/12/31 00:39:13;;;;;;;3.13;2.83;;;7.30;99.90;6.50;99362;;;;560954;252;24138;-76
2021/12/31 00:41:37;;;;;;;3.50;2.73;;;7.40;99.90;6.50;99368;;;;560818;252;24092;-76
2021/12/31 00:44:05;;;;;;;5.90;3.43;;;7.40;99.90;6.60;99377;;;;561160;252;24140;-75
2021/12/31 00:46:36;;;;;;;5.20;3.03;;;7.40;99.90;6.60;99376;;;;560663;252;24140;-76
2021/12/31 00:49:03;;;;;;;4.70;2.80;;;7.50;99.90;6.60;99368;;;;561059;252;24110;-76
2021/12/31 00:51:28;;;;;;;4.03;2.47;;;7.50;99.90;6.70;99367;;;;561098;252;24158;-76
2021/12/31 00:53:57;;;;;;;2.97;2.43;;;7.60;99.90;6.70;99358;;;;560899;249;24161;-76
2021/12/31 00:56:25;;;;;;;4.10;2.53;;;7.60;99.90;6.80;99368;;;;556358;256;24161;-76
2021/12/31 00:58:53;;;;;;;3.63;2.77;;;7.70;99.90;6.80;99374;;;;559123;256;24237;-76
2021/12/31 01:01:22;;;;;;;3.83;2.27;;;7.70;99.90;6.90;99384;;;;559287;252;24154;-76
2021/12/31 01:03:51;;;;;;;3.13;2.07;;;7.80;99.90;6.90;99385;;;;551051;256;24173;-76
2021/12/31 01:06:16;;;;;;;2.23;2.03;;;7.80;99.90;7.00;99391;;;;551025;256;24213;-76
2021/12/31 01:08:44;;;;;;;2.23;2.03;;;7.80;99.90;7.00;99385;;;;559214;252;24203;-76
2021/12/31 01:11:12;;;;;;;2.67;2.00;;;7.90;99.90;7.00;99383;;;;551079;256;24159;-77
2021/12/31 01:14:00;;;;;;;1.90;1.57;;;7.90;99.90;7.00;99376;;;;551151;256;24190;-75
2021/12/31 01:16:34;;;;;;;3.10;2.07;;;7.90;99.90;7.10;99379;;;;551032;256;24165;-75
2021/12/31 01:21:22;;;;;;;1.67;1.53;;;8.00;99.90;7.20;99408;;;;551102;256;24154;-75
2021/12/31 01:23:51;;;;;;;1.87;1.60;;;8.10;99.90;7.20;99406;;;;551218;256;24177;-76
2021/12/31 01:26:18;;;;;;;3.60;2.07;;;8.10;99.90;7.20;99418;;;;551105;256;24193;-75
2021/12/31 01:28:47;;;;;;;2.47;2.23;;;8.10;99.90;7.30;99409;;;;551091;258;24196;-75
2021/12/31 01:31:15;;;;;;;1.80;1.70;;;8.10;99.90;7.30;99395;;;;540981;261;24230;-76
2021/12/31 01:33:43;;;;;;;1.90;1.70;;;8.20;99.90;7.30;99397;;;;540660;261;24298;-75
2021/12/31 01:36:11;;;;;;;1.97;1.87;;;8.20;99.90;7.30;99394;;;;540755;261;24189;-75
2021/12/31 01:38:39;;;;;;;3.67;1.80;;;8.20;99.90;7.20;99405;;;;540492;261;24205;-75
2021/12/31 01:41:07;;;;;;;1.77;1.67;;;8.10;99.90;7.20;99399;;;;540609;261;24189;-76
2021/12/31 01:43:35;;;;;;;2.45;2.20;;;8.10;99.90;7.30;99403;;;;535765;261;35688;-76
2021/12/31 01:46:11;;;;;;;1.80;1.70;;;8.20;99.90;7.30;99394;;;;540569;261;24167;-76
2021/12/31 01:48:47;;;;;;;1.77;1.43;;;8.20;99.90;7.30;99399;;;;540456;261;24190;-76
2021/12/31 01:51:03;;;;;;;1.57;1.40;;;8.30;99.90;7.40;99396;;;;540255;261;24201;-76
2021/12/31 01:53:32;;;;;;;2.23;1.80;;;8.20;99.90;7.40;99401;;;;549532;257;24161;-75
2021/12/31 01:55:59;;;;;;;1.53;1.43;;;8.30;99.90;7.40;99397;;;;540606;261;24202;-77
2021/12/31 01:58:27;;;;;;;2.60;1.80;;;8.30;99.90;7.40;99391;;;;549924;257;24156;-79
2021/12/31 02:00:55;;;;;;;1.57;1.47;;;8.30;99.90;7.40;99389;;;;539395;261;24170;-78
2021/12/31 02:03:23;;;;;;;2.40;1.73;;;8.30;99.90;7.50;99391;;;;539763;262;24241;-78
2021/12/31 02:05:51;;;;;;;4.93;1.77;;;8.30;99.90;7.50;99391;;;;560373;252;24174;-79
2021/12/31 02:08:22;;;;;;;1.57;1.47;;;8.40;99.90;7.50;99391;;;;539447;262;24214;-76
2021/12/31 02:10:47;;;;;;;2.17;1.90;;;8.40;99.90;7.50;99395;;;;559101;256;24142;-75
2021/12/31 02:13:19;;;;;;;1.43;1.33;;;8.40;99.90;7.50;99389;;;;559913;252;24119;-75
2021/12/31 02:15:46;;;;;;;2.40;2.20;;;8.40;99.90;7.50;99395;;;;545311;259;35549;-75
2021/12/31 02:18:11;;;;;;;2.83;1.67;;;8.40;99.90;7.60;99389;;;;565565;253;25487;-75
2021/12/31 02:20:49;;;;;;;2.17;1.90;;;8.50;99.90;7.50;99390;;;;546240;259;24136;-76
2021/12/31 02:23:08;;;;;;;1.57;1.30;;;8.50;99.90;7.60;99388;;;;557184;257;24162;-74
2021/12/31 02:25:37;;;;;;;1.77;1.27;;;8.40;99.90;7.60;99397;;;;542824;260;24184;-75
2021/12/31 02:28:04;;;;;;;1.63;1.53;;;8.50;99.90;7.60;99398;;;;554656;257;24171;-76
2021/12/31 02:30:32;;;;;;;1.60;1.50;;;8.50;99.90;7.60;99399;;;;544215;257;24164;-75
2021/12/31 02:33:03;;;;;;;1.27;1.03;;;8.50;99.90;7.70;99411;;;;557344;254;24134;-75
2021/12/31 02:35:28;;;;;;;1.07;1.00;;;8.60;99.90;7.80;99410;;;;564296;254;24121;-75
2021/12/31 02:37:55;;;;;;;1.60;1.40;;;8.60;99.90;7.80;99404;;;;558900;254;24114;-75
2021/12/31 02:40:24;;;;;;;1.23;1.13;;;8.70;99.90;7.80;99397;;;;555659;257;24173;-75
2021/12/31 02:42:51;;;;;;;1.30;1.20;;;8.70;99.90;7.90;99415;;;;546071;256;24184;-75
2021/12/31 02:45:21;;;;;;;1.67;1.47;;;8.80;99.90;7.90;99408;;;;547044;258;24161;-76
2021/12/31 02:47:47;;;;;;;1.47;1.37;;;8.80;99.90;7.90;99402;;;;559461;254;24157;-74
2021/12/31 02:50:18;;;;;;;1.50;1.40;;;8.80;99.90;7.90;99422;;;;556843;254;24134;-75
2021/12/31 02:52:45;;;;;;;1.50;1.40;;;8.80;99.90;7.90;99417;;;;556724;254;24133;-74
2021/12/31 02:55:14;;;;;;;2.03;1.60;;;8.80;99.90;7.90;99420;;;;547157;257;24212;-75
2021/12/31 02:57:43;;;;;;;8.13;1.47;;;8.80;99.90;7.90;99407;;;;544925;258;24183;-75
2021/12/31 03:00:10;;;;;;;1.10;1.10;;;8.80;99.90;7.90;99414;;;;556014;254;24145;-75
2021/12/31 03:02:38;;;;;;;1.30;1.20;;;8.80;99.90;8.00;99419;;;;556107;254;24167;-75
2021/12/31 03:05:06;;;;;;;2.93;1.70;;;8.80;99.90;8.00;99415;;;;565420;252;24119;-75
2021/12/31 03:07:34;;;;;;;1.70;1.60;;;8.80;99.90;8.00;99408;;;;556182;254;24130;-74
2021/12/31 03:10:02;;;;;;;2.20;1.90;;;8.80;99.90;8.00;99420;;;;565856;252;24175;-75
2021/12/31 03:12:29;;;;;;;2.87;1.80;;;8.90;99.90;8.00;99422;;;;552851;255;24180;-74
2021/12/31 03:14:58;;;;;;;2.30;1.57;;;8.90;99.90;8.00;99423;;;;565374;250;24081;-73
2021/12/31 03:17:26;;;;;;;2.40;2.13;;;8.90;99.90;8.00;99422;;;;561630;250;24122;-74
2021/12/31 03:20:07;;;;;;;1.87;1.60;;;8.90;99.90;8.10;99421;;;;559896;251;24125;-75
2021/12/31 03:22:22;;;;;;;1.67;1.57;;;8.90;99.90;8.10;99423;;;;570088;250;24121;-75
2021/12/31 03:24:50;;;;;;;1.83;1.60;;;8.90;99.90;8.10;99412;;;;557985;255;24194;-78
2021/12/31 03:27:18;;;;;;;1.57;1.47;;;9.00;99.90;8.10;99410;;;;549169;257;24158;-76
2021/12/31 03:29:46;;;;;;;1.50;1.40;;;9.00;99.90;8.10;99412;;;;556852;257;24154;-77
2021/12/31 03:32:13;;;;;;;2.17;1.67;;;9.00;99.90;8.10;99414;;;;558689;256;24198;-78
2021/12/31 03:34:41;;;;;;;1.70;1.60;;;9.00;99.90;8.10;99407;;;;552968;258;24161;-76
2021/12/31 03:37:09;;;;;;;2.00;1.57;;;9.00;99.90;8.10;99420;;;;546718;251;24109;-75
2021/12/31 03:39:37;;;;;;;2.37;2.10;;;9.00;99.90;8.10;99418;;;;561572;252;24148;-76
2021/12/31 03:42:05;;;;;;;2.23;1.60;;;9.00;99.90;8.10;99414;;;;565128;253;24109;-76
2021/12/31 03:44:33;;;;;;;2.47;1.50;;;9.00;99.90;8.10;99410;;;;555757;254;24209;-75
2021/12/31 03:47:01;;;;;;;3.53;2.30;;;9.00;99.90;8.10;99414;;;;553502;254;35470;-77
2021/12/31 03:49:29;;;;;;;2.17;1.87;;;9.00;99.90;8.10;99410;;;;558382;254;25504;-76
2021/12/31 03:51:57;;;;;;;2.70;1.60;;;9.00;99.90;8.10;99408;;;;559364;253;24102;-77
2021/12/31 03:54:25;;;;;;;1.83;1.73;;;9.00;99.90;8.10;99405;;;;559466;254;24171;-75
2021/12/31 03:56:52;;;;;;;2.57;1.60;;;9.00;99.90;8.10;99418;;;;556414;254;24156;-75
2021/12/31 03:59:20;;;;;;;1.47;1.40;;;9.00;99.90;8.10;99415;;;;558776;254;24115;-76
2021/12/31 04:01:48;;;;;;;2.00;1.90;;;9.00;99.90;8.10;99422;;;;558663;254;24173;-75
2021/12/31 04:04:16;;;;;;;2.10;1.63;;;9.00;99.90;8.10;99427;;;;558562;253;24125;-75
2021/12/31 04:06:44;;;;;;;2.20;1.70;;;8.90;99.90;8.10;99432;;;;559546;251;24289;-75
2021/12/31 04:09:12;;;;;;;3.77;2.10;;;9.00;99.90;8.10;99436;;;;560214;251;24152;-74
2021/12/31 04:11:40;;;;;;;2.67;1.60;;;9.00;99.90;8.10;99451;;;;560696;251;24151;-75
2021/12/31 04:14:08;;;;;;;1.70;1.60;;;9.00;99.90;8.20;99452;;;;559927;251;24160;-75
2021/12/31 04:16:36;;;;;;;1.53;1.43;;;9.00;99.90;8.20;99445;;;;559900;251;24204;-75
2021/12/31 04:19:08;;;;;;;1.60;1.50;;;9.10;99.90;8.20;99438;;;;559899;251;24191;-75
2021/12/31 04:21:33;;;;;;;1.67;1.57;;;9.10;99.90;8.20;99451;;;;559728;251;24112;-75
2021/12/31 04:24:16;;;;;;;1.50;1.40;;;9.10;99.90;8.30;99455;;;;559916;251;24142;-76
2021/12/31 04:26:36;;;;;;;1.60;1.50;;;9.10;99.90;8.30;99460;;;;560045;251;24170;-76
2021/12/31 04:29:04;;;;;;;2.40;1.20;;;9.10;99.90;8.30;99461;;;;559467;251;24195;-76
2021/12/31 04:31:32;;;;;;;1.43;1.33;;;9.20;99.90;8.30;99465;;;;559862;251;24228;-75
2021/12/31 04:34:04;;;;;;;1.70;1.60;;;9.20;99.90;8.30;99451;;;;559760;251;24130;-75
2021/12/31 04:36:28;;;;;;;1.60;1.50;;;9.20;99.90;8.30;99454;;;;559453;251;24159;-76
2021/12/31 04:38:56;;;;;;;1.60;1.50;;;9.20;99.90;8.30;99451;;;;559817;251;24182;-75
2021/12/31 04:41:24;;;;;;;2.23;1.70;;;9.10;99.90;8.30;99449;;;;559661;251;24187;-76
2021/12/31 04:43:56;;;;;;;2.40;1.40;;;9.10;99.90;8.30;99438;;;;559835;251;24108;-76
2021/12/31 04:46:20;;;;;;;1.73;1.63;;;9.10;99.90;8.20;99442;;;;558439;253;24112;-77
2021/12/31 04:48:48;;;;;;;3.83;1.50;;;9.10;99.90;8.20;99432;;;;561492;251;24109;-76
2021/12/31 04:51:16;;;;;;;2.17;1.70;;;9.10;99.90;8.20;99433;;;;561459;251;24112;-76
2021/12/31 04:53:45;;;;;;;2.03;1.80;;;9.00;99.90;8.20;99442;;;;561325;251;24139;-76
2021/12/31 04:56:13;;;;;;;1.60;1.50;;;9.00;99.90;8.10;99432;;;;561455;251;24144;-76
2021/12/31 04:58:41;;;;;;;2.67;2.30;;;9.00;99.90;8.10;99425;;;;558084;251;46291;-78
2021/12/31 05:01:09;;;;;;;1.70;1.60;;;8.90;99.90;8.10;99424;;;;561803;251;25530;-75
2021/12/31 05:03:40;;;;;;;1.97;1.57;;;8.90;99.90;8.00;99432;;;;562693;250;24192;-77
2021/12/31 05:06:05;;;;;;;2.00;1.90;;;8.90;99.90;8.10;99444;;;;549159;260;24094;-77
2021/12/31 05:08:33;;;;;;;1.60;1.50;;;8.90;99.90;8.10;99434;;;;567429;251;24131;-74
2021/12/31 05:11:01;;;;;;;1.53;1.43;;;8.90;99.90;8.10;99427;;;;562041;251;24102;-74
2021/12/31 05:13:29;;;;;;;1.60;1.47;;;8.90;99.90;8.10;99435;;;;561927;251;24126;-79
2021/12/31 05:16:02;;;;;;;1.60;1.50;;;8.90;99.90;8.10;99423;;;;561850;251;24161;-75
2021/12/31 05:18:25;;;;;;;1.57;1.47;;;8.90;99.90;8.10;99430;;;;561949;251;24131;-76
2021/12/31 05:20:53;;;;;;;1.23;1.13;;;8.90;99.90;8.10;99422;;;;561666;251;24201;-75
2021/12/31 05:23:21;;;;;;;2.00;1.70;;;8.90;99.90;8.10;99435;;;;561580;251;24098;-76
2021/12/31 05:25:49;;;;;;;5.00;1.83;;;9.00;99.90;8.20;99425;;;;561679;251;24102;-75
2021/12/31 05:28:17;;;;;;;1.40;1.30;;;9.00;99.90;8.20;99432;;;;560941;251;24123;-76
2021/12/31 05:30:45;;;;;;;3.17;1.90;;;9.00;99.90;8.20;99432;;;;549521;257;24178;-76
2021/12/31 05:33:13;;;;;;;1.83;1.73;;;9.00;99.90;8.20;99433;;;;549415;257;24195;-76
2021/12/31 05:35:41;;;;;;;2.07;1.97;;;9.00;99.90;8.20;99444;;;;549738;257;24188;-76
2021/12/31 05:38:09;;;;;;;3.47;1.67;;;9.10;99.90;8.20;99446;;;;548931;257;24136;-76
2021/12/31 05:40:37;;;;;;;1.77;1.60;;;9.10;99.90;8.30;99426;;;;551136;256;27386;-76
2021/12/31 05:43:05;;;;;;;1.60;1.50;;;9.10;99.90;8.30;99435;;;;551252;256;24140;-76
2021/12/31 05:45:33;;;;;;;2.53;1.33;;;9.10;99.90;8.30;99437;;;;545489;256;24127;-77
2021/12/31 05:48:01;;;;;;;2.40;1.77;;;9.10;99.90;8.30;99435;;;;551293;256;24245;-77
2021/12/31 05:50:29;;;;;;;2.20;1.13;;;9.10;99.90;8.30;99434;;;;550972;250;24121;-78
2021/12/31 05:52:57;;;;;;;2.97;1.80;;;9.10;99.90;8.30;99443;;;;565310;252;24178;-77
2021/12/31 05:55:29;;;;;;;2.90;2.30;;;9.10;99.90;8.30;99441;;;;539568;259;35601;-77
2021/12/31 05:57:55;;;;;;;1.80;1.70;;;9.10;99.90;8.30;99434;;;;548913;257;24182;-78
2021/12/31 06:00:21;;;;;;;1.73;1.63;;;9.10;99.90;8.30;99433;;;;560698;251;24116;-78
2021/12/31 06:02:50;;;;;;;2.97;1.70;;;9.20;99.90;8.30;99432;;;;561291;251;24149;-76
2021/12/31 06:05:18;;;;;;;1.70;1.60;;;9.10;99.90;8.30;99436;;;;566605;251;24112;-77
2021/12/31 06:07:45;;;;;;;1.77;1.67;;;9.20;99.90;8.30;99431;;;;566346;251;24152;-75
2021/12/31 06:10:13;;;;;;;1.67;1.57;;;9.20;99.90;8.40;99439;;;;566233;251;24156;-75
2021/12/31 06:12:43;;;;;;;1.70;1.60;;;9.20;99.90;8.40;99435;;;;566500;251;24201;-76
2021/12/31 06:15:10;;;;;;;1.80;1.70;;;9.20;99.90;8.40;99429;;;;561720;251;25303;-75
2021/12/31 06:17:37;;;;;;;2.13;1.80;;;9.20;99.90;8.40;99422;;;;562111;251;24166;-75
2021/12/31 06:20:06;;;;;;;3.90;1.73;;;9.20;99.90;8.40;99428;;;;560627;251;24167;-75
2021/12/31 06:22:34;;;;;;;1.60;1.50;;;9.20;99.90;8.40;99424;;;;565836;251;24107;-75
2021/12/31 06:25:02;;;;;;;2.50;1.43;;;9.20;99.90;8.40;99419;;;;561040;251;24138;-74
2021/12/31 06:27:29;;;;;;;1.20;1.20;;;9.20;99.90;8.40;99423;;;;556755;256;24129;-76
2021/12/31 06:29:57;;;;;;;1.40;1.30;;;9.20;99.90;8.40;99431;;;;551693;256;24170;-75
2021/12/31 06:32:26;;;;;;;1.87;1.67;;;9.20;99.90;8.40;99419;;;;559668;256;24194;-76
2021/12/31 06:34:54;;;;;;;2.73;1.70;;;9.20;99.90;8.40;99432;;;;559914;256;24170;-78
2021/12/31 06:37:23;;;;;;;2.77;1.73;;;9.20;99.90;8.30;99424;;;;559532;256;24170;-76
2021/12/31 06:39:50;;;;;;;1.60;1.50;;;9.20;99.90;8.40;99419;;;;559489;256;24387;-76
2021/12/31 06:42:18;;;;;;;1.80;1.70;;;9.20;99.90;8.40;99413;;;;559628;256;24138;-76
2021/12/31 06:44:46;;;;;;;2.37;1.73;;;9.20;99.90;8.40;99414;;;;559549;256;24167;-76
2021/12/31 06:47:14;;;;;;;3.43;2.17;;;9.30;99.90;8.40;99422;;;;559320;254;24129;-74
2021/12/31 06:49:43;;;;;;;2.57;2.37;;;9.30;99.90;8.40;99416;;;;562653;251;24156;-75
2021/12/31 06:52:10;;;;;;;2.40;2.20;;;9.30;99.90;8.50;99409;;;;563728;251;24111;-75
2021/12/31 06:54:38;;;;;;;3.20;2.40;;;9.30;99.90;8.50;99408;;;;563873;251;24089;-76
2021/12/31 06:57:06;;;;;;;5.77;2.90;;;9.30;99.90;8.50;99408;;;;565874;251;25219;-77
2021/12/31 06:59:34;;;;;;;4.60;3.60;;;9.30;99.90;8.50;99403;;;;544498;254;37732;-77
2021/12/31 07:02:01;;;;;;;3.67;2.83;;;9.40;99.90;8.50;99413;;;;568872;249;24200;-77
2021/12/31 07:04:29;;;;;;;4.80;2.80;;;9.40;99.90;8.50;99411;;;;546932;259;24131;-77
2021/12/31 07:07:00;;;;;;;3.00;2.40;;;9.40;99.90;8.60;99421;;;;558298;253;24226;-76
2021/12/31 07:09:25;;;;;;;3.83;2.90;;;9.40;99.90;8.60;99422;;;;557237;254;24176;-78
2021/12/31 07:11:53;;;;;;;4.57;2.50;;;9.40;99.90;8.60;99423;;;;545755;253;24201;-77
2021/12/31 07:14:21;;;;;;;2.87;2.30;;;9.50;99.90;8.60;99434;;;;571418;248;24165;-78
2021/12/31 07:16:49;;;;;;;2.53;2.30;;;9.50;99.90;8.60;99425;;;;549816;256;24160;-78
2021/12/31 07:19:17;;;;;;;3.07;2.53;;;9.50;99.90;8.60;99423;;;;546165;256;24184;-75
2021/12/31 07:21:45;;;;;;;2.77;2.57;;;9.50;99.90;8.60;99431;;;;550601;256;24124;-76
2021/12/31 07:24:13;;;;;;;2.87;2.67;;;9.50;99.90;8.60;99441;;;;559177;256;24216;-75
2021/12/31 07:26:41;;;;;;;3.60;2.47;;;9.50;99.90;8.60;99439;;;;541167;260;24145;-75
2021/12/31 07:29:11;;;;;;;2.73;2.00;;;9.50;99.90;8.60;99445;;;;551031;255;24157;-76
2021/12/31 07:31:36;;;;;;;4.17;2.83;;;9.50;99.90;8.70;99447;;;;559531;253;24148;-76
2021/12/31 07:34:04;;;;;;;3.47;2.23;;;9.50;99.90;8.70;99448;;;;557117;251;24118;-76
2021/12/31 07:36:32;;;;;;;3.70;2.90;;;9.50;99.90;8.70;99453;;;;567181;251;24118;-76
2021/12/31 07:39:05;;;;;;;3.90;2.33;;;9.50;99.90;8.70;99463;;;;561723;251;24137;-77
2021/12/31 07:41:28;;;;;;;2.50;2.30;;;9.60;99.90;8.70;99461;;;;561855;251;24112;-76
2021/12/31 07:43:56;;;;;;;3.60;2.43;;;9.60;99.90;8.70;99456;;;;561668;251;24160;-76
2021/12/31 07:46:24;;;;;;;2.27;2.10;;;9.60;99.90;8.70;99456;;;;565651;251;24166;-76
2021/12/31 07:48:52;;;;;;;2.27;2.07;;;9.60;99.90;8.70;99454;;;;560608;251;24108;-77
2021/12/31 07:51:20;;;;;;;4.33;2.50;;;9.50;99.90;8.70;99461;;;;566476;251;24168;-76
2021/12/31 07:53:51;;;;;;;2.70;2.50;;;9.50;99.90;8.70;99452;;;;559274;249;24123;-87
2021/12/31 07:56:18;;;;;;;3.77;2.93;;;9.50;99.90;8.70;99457;;;;553027;253;24216;-76
2021/12/31 07:58:43;;;;;;;3.17;2.33;;;9.40;99.90;8.70;99465;;;;557302;251;24111;-76
2021/12/31 08:01:11;;;;;;;3.50;2.97;;;9.50;99.90;8.70;99465;;;;566833;251;24104;-76
2021/12/31 08:03:39;;;;;;;3.80;2.90;;;9.50;99.90;8.70;99456;;;;566630;251;24101;-76
2021/12/31 08:06:07;;;;;;;3.77;2.70;;;9.50;99.90;8.70;99462;;;;566634;251;24181;-76
2021/12/31 08:08:35;;;;;;;3.47;2.47;;;9.50;99.90;8.70;99464;;;;566254;251;24151;-76
2021/12/31 08:11:03;;;;;;;3.37;3.07;;;9.50;99.90;8.70;99452;;;;566462;251;24177;-76
2021/12/31 08:13:31;;;;;;;3.00;2.70;;;9.50;99.90;8.70;99455;;;;566304;251;24122;-77
2021/12/31 08:16:02;;;;;;;3.53;2.97;;;9.50;99.90;8.80;99454;;;;566477;251;24208;-76
2021/12/31 08:18:26;;;;;;;5.83;3.00;;;9.60;99.90;8.80;99455;;;;568767;251;24148;-76
2021/12/31 08:20:54;;;;;;;5.13;2.90;;;9.60;99.90;8.80;99448;;;;565930;251;24202;-76
2021/12/31 08:23:23;;;;;;;4.57;3.50;;;9.70;99.90;8.80;99449;;;;566584;251;24146;-76
2021/12/31 08:25:51;;;;;;;5.00;3.93;;;9.60;99.90;8.80;99444;;;;566598;251;24155;-75
2021/12/31 08:28:20;;;;;;;6.10;4.10;;;9.60;99.90;8.90;99447;;;;569533;251;24178;-76
2021/12/31 08:30:47;;;;;;;5.70;4.45;;;9.60;99.90;8.80;99445;;;;561760;251;35404;-76
2021/12/31 08:33:15;;;;;;;5.07;4.03;;;9.70;99.90;8.90;99446;;;;566751;251;24123;-75
2021/12/31 08:35:47;;;;;;;4.00;3.60;;;9.70;99.90;8.90;99436;;;;566683;251;24118;-77
2021/12/31 08:38:11;;;;;;;5.37;3.40;;;9.70;99.90;8.90;99432;;;;562012;251;24117;-75
2021/12/31 08:40:40;;;;;;;4.40;3.27;;;9.70;99.90;8.90;99443;;;;567741;251;24134;-76
2021/12/31 08:43:08;;;;;;;5.10;3.20;;;9.70;99.90;8.90;99453;;;;567497;251;24142;-76
2021/12/31 08:45:36;;;;;;;4.13;3.20;;;9.70;99.90;8.90;99439;;;;567494;251;24135;-77
2021/12/31 08:48:04;;;;;;;3.83;3.40;;;9.70;99.90;8.90;99437;;;;567210;251;24223;-77
2021/12/31 08:50:34;;;;;;;3.73;3.13;;;9.70;99.90;8.90;99437;;;;561727;251;24109;-76
2021/12/31 08:52:59;;;;;;;4.17;3.37;;;9.70;99.90;8.90;99437;;;;561647;251;24170;-77
2021/12/31 08:55:27;;;;;;;6.43;3.80;;;9.80;99.90;8.90;99429;;;;561909;251;24153;-77
2021/12/31 08:57:55;;;;;;;6.20;3.40;;;9.80;99.90;8.90;99438;;;;567563;251;24127;-76
2021/12/31 09:00:23;;;;;;;4.80;3.07;;;9.80;99.90;9.00;99435;;;;570681;251;24111;-76
2021/12/31 09:02:51;;;;;;;4.97;2.80;;;9.80;99.90;9.00;99443;;;;566643;251;24162;-78
2021/12/31 09:05:19;;;;;;;4.53;3.00;;;9.80;99.90;9.00;99439;;;;561349;251;24124;-77
2021/12/31 09:07:47;;;;;;;4.10;2.53;;;9.80;99.90;9.00;99443;;;;566659;251;24149;-78
2021/12/31 09:10:19;;;;;;;3.57;2.97;;;9.90;99.90;9.10;99446;;;;566938;251;24120;-78
2021/12/31 09:12:47;;;;;;;2.87;2.57;;;9.90;99.90;9.10;99439;;;;561087;251;24183;-79
2021/12/31 09:15:12;;;;;;;3.03;2.73;;;9.90;99.90;9.10;99440;;;;566253;251;24294;-77
2021/12/31 09:17:40;;;;;;;5.53;3.17;;;9.90;99.90;9.10;99433;;;;550302;256;24150;-77
2021/12/31 09:20:11;;;;;;;2.57;2.13;;;10.00;99.90;9.20;99430;;;;569248;251;24151;-77
2021/12/31 09:22:36;;;;;;;2.63;2.43;;;10.00;99.90;9.20;99436;;;;559329;253;24160;-77
2021/12/31 09:25:04;;;;;;;3.20;2.70;;;10.00;99.90;9.20;99447;;;;560813;251;24123;-76
2021/12/31 09:27:31;;;;;;;3.83;2.57;;;10.10;99.90;9.20;99438;;;;561154;253;24163;-77
2021/12/31 09:29:59;;;;;;;3.00;2.63;;;10.10;99.90;9.20;99434;;;;557323;253;24171;-77
2021/12/31 09:32:27;;;;;;;5.60;3.13;;;10.00;99.90;9.20;99422;;;;557304;253;24273;-77
2021/12/31 09:34:55;;;;;;;7.87;3.43;;;10.00;99.90;9.20;99433;;;;563143;253;24111;-76
2021/12/31 09:37:23;;;;;;;12.13;5.83;;;10.10;99.90;9.20;99432;;;;557378;253;24126;-77
2021/12/31 09:39:52;;;;;;;7.77;4.63;;;10.10;99.90;9.20;99424;;;;557363;253;24121;-76
2021/12/31 09:42:20;;;;;;;5.87;4.20;;;10.00;99.90;9.20;99426;;;;557273;253;24120;-77
2021/12/31 09:44:47;;;;;;;6.37;4.00;;;10.10;99.90;9.20;99429;;;;557357;253;24139;-77
2021/12/31 09:47:18;;;;;;;6.97;3.93;;;10.10;99.90;9.30;99417;;;;557288;253;24140;-77
2021/12/31 09:49:46;;;;;;;10.33;2.80;;;10.00;99.90;9.30;99413;;;;558042;253;24130;-76
2021/12/31 09:52:18;;;;;;;4.73;3.17;;;10.10;99.90;9.30;99407;;;;559222;253;35529;-77
2021/12/31 09:54:48;;;;;;;8.93;4.63;;;10.10;99.90;9.30;99399;;;;566261;253;24156;-76
2021/12/31 09:57:15;;;;;;;10.53;3.97;;;10.10;99.90;9.40;99399;;;;558054;253;24183;-76
2021/12/31 09:59:47;;;;;;;6.90;3.30;;;10.10;99.90;9.40;99395;;;;565877;253;24115;-77
2021/12/31 10:02:11;;;;;;;8.03;3.50;;;10.20;99.90;9.50;99394;;;;558218;253;24120;-77
2021/12/31 10:04:57;;;;;;;12.00;2.47;;;10.20;99.90;9.50;99397;;;;558114;253;24162;-76
2021/12/31 10:07:28;;;;;;;8.43;2.70;;;10.30;99.90;9.50;99393;;;;563563;253;24328;-77
2021/12/31 10:10:05;;;;;;;3.13;2.10;;;10.30;99.90;9.60;99395;;;;557572;253;24141;-76
2021/12/31 10:12:56;;;;;;;4.17;2.10;;;10.40;99.90;9.60;99380;;;;563012;253;24161;-77
2021/12/31 10:15:24;;;;;;;3.00;1.60;;;10.40;99.90;9.60;99387;;;;558876;251;24227;-78
2021/12/31 10:17:50;;;;;;;2.87;1.67;;;10.40;99.90;9.60;99391;;;;565790;253;24170;-77
2021/12/31 10:20:21;;;;;;;3.97;1.43;;;10.40;99.90;9.60;99383;;;;563171;253;24146;-77
2021/12/31 10:22:49;;;;;;;1.73;1.63;;;10.40;99.90;9.60;99371;;;;565852;253;24107;-77
2021/12/31 10:25:20;;;;;;;6.67;1.70;;;10.40;99.90;9.70;99372;;;;563036;253;24185;-76
2021/12/31 10:27:47;;;;;;;4.20;1.70;;;10.50;99.90;9.80;99370;;;;563196;253;24124;-76
2021/12/31 10:30:15;;;;;;;2.27;2.07;;;10.50;99.90;9.80;99358;;;;565618;253;24190;-76
2021/12/31 10:32:43;;;;;;;2.63;2.43;;;10.60;99.90;9.90;99344;;;;565292;251;24119;-77
2021/12/31 10:35:14;;;;;;;5.00;2.90;;;10.60;99.90;9.90;99347;;;;550186;256;24160;-76
2021/12/31 10:37:48;;;;;;;4.10;3.33;;;10.70;99.90;9.90;99358;;;;550135;256;24212;-77
2021/12/31 10:40:13;;;;;;;13.93;6.23;;;10.70;99.90;10.00;99352;;;;567978;251;24107;-76
2021/12/31 10:42:40;;;;;;;3.70;3.23;;;10.80;99.90;10.00;99353;;;;550683;256;24193;-77
2021/12/31 10:45:09;;;;;;;4.17;2.73;;;10.80;99.90;10.00;99360;;;;562610;251;24116;-77
2021/12/31 10:47:37;;;;;;;4.90;2.20;;;10.80;99.90;10.00;99354;;;;550740;256;24153;-78
2021/12/31 10:50:04;;;;;;;8.57;2.97;;;10.80;99.90;10.10;99359;;;;557971;257;24157;-76
2021/12/31 10:52:43;;;;;;;6.20;3.37;;;10.90;99.90;10.10;99353;;;;569357;251;24136;-77
2021/12/31 10:57:45;;;;;;;5.37;3.10;;;11.00;99.90;10.20;99339;;;;559314;256;24148;-77
2021/12/31 11:00:13;;;;;;;3.80;2.93;;;11.00;99.90;10.20;99338;;;;551174;254;24114;-77
2021/12/31 11:02:42;;;;;;;2.87;2.00;;;11.00;99.90;10.20;99338;;;;562684;251;24135;-78
2021/12/31 11:05:10;;;;;;;2.27;1.77;;;11.00;99.90;10.20;99342;;;;567794;251;24125;-78
2021/12/31 11:07:37;;;;;;;3.23;2.60;;;11.00;99.90;10.20;99334;;;;567572;251;24193;-77
2021/12/31 11:10:05;;;;;;;6.53;2.10;;;11.00;99.90;10.20;99342;;;;567242;251;24124;-76
2021/12/31 11:12:34;;;;;;;11.73;3.57;;;11.00;99.90;10.20;99338;;;;570387;250;24120;-77
2021/12/31 11:15:02;;;;;;;3.83;2.50;;;11.00;99.90;10.20;99342;;;;561618;251;24178;-78
2021/12/31 11:17:32;;;;;;;2.77;2.13;;;11.00;99.90;10.20;99345;;;;560319;256;24162;-78
2021/12/31 11:19:58;;;;;;;5.87;2.43;;;11.00;99.90;10.20;99340;;;;561421;251;24132;-77
2021/12/31 11:22:26;;;;;;;3.67;2.00;;;11.00;99.90;10.20;99329;;;;560058;256;24151;-77
2021/12/31 11:24:53;;;;;;;5.87;2.87;;;11.00;99.90;10.20;99331;;;;559942;256;25147;-78
2021/12/31 11:27:42;;;;;;;4.23;2.57;;;11.00;99.90;10.20;99328;;;;561617;251;24181;-77
2021/12/31 11:30:01;;;;;;;5.03;3.17;;;11.00;99.90;10.30;99338;;;;560898;251;24173;-76
2021/12/31 11:32:56;;;;;;;5.70;2.37;;;11.10;99.90;10.30;99332;;;;568920;250;24137;-77
2021/12/31 11:35:31;;;;;;;5.37;2.50;;;11.10;99.90;10.30;99330;;;;552103;256;24134;-77
2021/12/31 11:37:58;;;;;;;3.97;2.60;;;11.10;99.90;10.40;99331;;;;552565;259;24169;-76
2021/12/31 11:40:30;;;;;;;2.60;2.40;;;11.10;99.90;10.30;99320;;;;548143;259;24136;-76
2021/12/31 11:43:17;;;;;;;5.37;2.80;;;11.10;99.90;10.30;99315;;;;547944;259;24151;-76